SHT22A EGLL-EGJB
Flight info
| Callsign | SHT22A |
|---|---|
| Flight time | 0h 31m |
| Altitude | 17000 |
| Route | N0383F170 GOGSI2F GOGSI N621 SAM/N0387F180 N63 LELNA DCT |
| Aircraft | A319/M-SDE3FGIJ1KRWXY/LB1 |
Departure
| Time | 2026-04-21 12:16 |
|---|---|
| Airport | London Heathrow Airport (EGLL) |
Arrival
| Time | 2026-04-21 12:47 |
|---|---|
| Airport | Guernsey Airport (EGJB) |
| Time | Latitude | Longitude | Altitude | Speed | Heading |
|---|---|---|---|---|---|
| 2026-04-21 12:13 | 51.47283 | -0.48473 | 91 ft | 6 kts | 179° |
| 2026-04-21 12:13 | 51.47221 | -0.48472 | 86 ft | 12 kts | 179° |
| 2026-04-21 12:14 | 51.47121 | -0.48471 | 86 ft | 17 kts | 179° |
| 2026-04-21 12:14 | 51.46985 | -0.48472 | 88 ft | 22 kts | 180° |
| 2026-04-21 12:14 | 51.46818 | -0.48470 | 89 ft | 25 kts | 179° |
| 2026-04-21 12:14 | 51.46639 | -0.48467 | 86 ft | 23 kts | 180° |
| 2026-04-21 12:15 | 51.46499 | -0.48467 | 87 ft | 13 kts | 180° |
| 2026-04-21 12:15 | 51.46478 | -0.48336 | 87 ft | 20 kts | 88° |
| 2026-04-21 12:15 | 51.46483 | -0.47815 | 87 ft | 80 kts | 90° |
| 2026-04-21 12:15 | 51.46487 | -0.46600 | 92 ft | 138 kts | 89° |
| 2026-04-21 12:16 | 51.46493 | -0.44992 | 636 ft | 146 kts | 89° |
| 2026-04-21 12:16 | 51.46506 | -0.43334 | 1334 ft | 150 kts | 86° |
| 2026-04-21 12:16 | 51.46429 | -0.41567 | 1848 ft | 174 kts | 105° |
| 2026-04-21 12:16 | 51.45757 | -0.39755 | 2263 ft | 204 kts | 120° |
| 2026-04-21 12:17 | 51.44895 | -0.37784 | 2883 ft | 229 kts | 121° |
| 2026-04-21 12:17 | 51.43934 | -0.35625 | 3781 ft | 243 kts | 122° |
| 2026-04-21 12:17 | 51.42659 | -0.33759 | 4895 ft | 256 kts | 145° |
| 2026-04-21 12:17 | 51.40942 | -0.32822 | 6040 ft | 269 kts | 169° |
| 2026-04-21 12:18 | 51.39053 | -0.33117 | 7175 ft | 281 kts | 194° |
| 2026-04-21 12:18 | 51.37347 | -0.34733 | 8212 ft | 292 kts | 218° |
| 2026-04-21 12:18 | 51.35830 | -0.36936 | 9283 ft | 296 kts | 219° |
| 2026-04-21 12:18 | 51.34348 | -0.39109 | 10271 ft | 300 kts | 219° |
| 2026-04-21 12:19 | 51.32664 | -0.41370 | 10809 ft | 318 kts | 210° |
| 2026-04-21 12:19 | 51.30633 | -0.43002 | 11197 ft | 337 kts | 203° |
| 2026-04-21 12:19 | 51.28739 | -0.45279 | 11876 ft | 353 kts | 226° |
| 2026-04-21 12:19 | 51.27475 | -0.48658 | 12720 ft | 360 kts | 250° |
| 2026-04-21 12:20 | 51.26856 | -0.52550 | 13613 ft | 363 kts | 257° |
| 2026-04-21 12:20 | 51.26302 | -0.56503 | 14414 ft | 367 kts | 258° |
| 2026-04-21 12:20 | 51.25749 | -0.60510 | 15128 ft | 371 kts | 258° |
| 2026-04-21 12:20 | 51.25192 | -0.64534 | 15976 ft | 372 kts | 258° |
| 2026-04-21 12:21 | 51.24629 | -0.68556 | 16818 ft | 372 kts | 259° |
| 2026-04-21 12:21 | 51.24050 | -0.72650 | 17175 ft | 384 kts | 259° |
| 2026-04-21 12:21 | 51.23456 | -0.76826 | 17285 ft | 388 kts | 259° |
| 2026-04-21 12:21 | 51.22853 | -0.81028 | 17301 ft | 388 kts | 259° |
| 2026-04-21 12:22 | 51.22245 | -0.85216 | 17302 ft | 387 kts | 258° |
| 2026-04-21 12:22 | 51.21636 | -0.89389 | 17302 ft | 388 kts | 259° |
| 2026-04-21 12:22 | 51.20939 | -0.93558 | 17300 ft | 391 kts | 252° |
| 2026-04-21 12:22 | 51.19798 | -0.97493 | 17300 ft | 391 kts | 242° |
| 2026-04-21 12:23 | 51.18228 | -1.01020 | 17301 ft | 390 kts | 234° |
| 2026-04-21 12:23 | 51.16552 | -1.04427 | 17301 ft | 390 kts | 235° |
| 2026-04-21 12:23 | 51.14886 | -1.07840 | 17300 ft | 390 kts | 235° |
| 2026-04-21 12:23 | 51.13225 | -1.11253 | 17301 ft | 390 kts | 234° |
| 2026-04-21 12:24 | 51.11587 | -1.14615 | 17303 ft | 390 kts | 235° |
| 2026-04-21 12:24 | 51.09922 | -1.18026 | 17302 ft | 390 kts | 234° |
| 2026-04-21 12:24 | 51.08107 | -1.21247 | 17301 ft | 393 kts | 225° |
| 2026-04-21 12:24 | 51.05935 | -1.23896 | 17306 ft | 395 kts | 214° |
| 2026-04-21 12:25 | 51.03618 | -1.26243 | 17302 ft | 396 kts | 214° |
| 2026-04-21 12:25 | 51.01297 | -1.28602 | 17301 ft | 396 kts | 214° |
| 2026-04-21 12:25 | 50.98983 | -1.30958 | 17304 ft | 395 kts | 215° |
| 2026-04-21 12:25 | 50.96668 | -1.33320 | 17303 ft | 395 kts | 215° |
| 2026-04-21 12:26 | 50.94280 | -1.35504 | 17300 ft | 397 kts | 208° |
| 2026-04-21 12:26 | 50.91813 | -1.37489 | 17310 ft | 397 kts | 208° |
| 2026-04-21 12:26 | 50.89348 | -1.39464 | 17311 ft | 397 kts | 208° |
| 2026-04-21 12:26 | 50.86879 | -1.41433 | 17295 ft | 397 kts | 208° |
| 2026-04-21 12:27 | 50.84416 | -1.43391 | 17302 ft | 396 kts | 208° |
| 2026-04-21 12:27 | 50.81953 | -1.45343 | 17308 ft | 396 kts | 209° |
| 2026-04-21 12:27 | 50.79491 | -1.47294 | 17307 ft | 395 kts | 209° |
| 2026-04-21 12:27 | 50.77033 | -1.49243 | 17304 ft | 395 kts | 209° |
| 2026-04-21 12:28 | 50.75407 | -1.50528 | 17290 ft | 395 kts | 208° |
| 2026-04-21 12:28 | 50.72946 | -1.52472 | 17291 ft | 395 kts | 209° |
| 2026-04-21 12:28 | 50.70491 | -1.54416 | 17287 ft | 395 kts | 209° |
| 2026-04-21 12:28 | 50.68033 | -1.56368 | 17285 ft | 395 kts | 209° |
| 2026-04-21 12:29 | 50.65579 | -1.58315 | 17286 ft | 395 kts | 209° |
| 2026-04-21 12:29 | 50.63119 | -1.60259 | 17275 ft | 395 kts | 209° |
| 2026-04-21 12:29 | 50.60661 | -1.62200 | 17279 ft | 395 kts | 209° |
| 2026-04-21 12:29 | 50.58206 | -1.64134 | 17281 ft | 395 kts | 209° |
| 2026-04-21 12:30 | 50.55780 | -1.66041 | 17282 ft | 395 kts | 210° |
| 2026-04-21 12:30 | 50.53322 | -1.67972 | 17280 ft | 395 kts | 209° |
| 2026-04-21 12:30 | 50.50864 | -1.69901 | 17283 ft | 395 kts | 209° |
| 2026-04-21 12:30 | 50.48405 | -1.71825 | 17282 ft | 395 kts | 209° |
| 2026-04-21 12:31 | 50.45117 | -1.74393 | 17278 ft | 395 kts | 209° |
| 2026-04-21 12:31 | 50.43489 | -1.75663 | 17278 ft | 395 kts | 209° |
| 2026-04-21 12:31 | 50.41029 | -1.77585 | 17278 ft | 394 kts | 209° |
| 2026-04-21 12:31 | 50.38570 | -1.79504 | 17268 ft | 394 kts | 210° |
| 2026-04-21 12:32 | 50.36115 | -1.81420 | 17266 ft | 394 kts | 210° |
| 2026-04-21 12:32 | 50.33652 | -1.83341 | 17266 ft | 394 kts | 210° |
| 2026-04-21 12:32 | 50.31191 | -1.85255 | 17253 ft | 394 kts | 210° |
| 2026-04-21 12:32 | 50.28737 | -1.87162 | 17255 ft | 394 kts | 210° |
| 2026-04-21 12:33 | 50.26276 | -1.89067 | 17259 ft | 394 kts | 210° |
| 2026-04-21 12:33 | 50.23847 | -1.90945 | 17261 ft | 394 kts | 210° |
| 2026-04-21 12:33 | 50.21387 | -1.92847 | 17258 ft | 394 kts | 210° |
| 2026-04-21 12:33 | 50.18929 | -1.94744 | 17256 ft | 394 kts | 210° |
| 2026-04-21 12:34 | 50.16467 | -1.96643 | 17251 ft | 394 kts | 210° |
| 2026-04-21 12:34 | 50.14008 | -1.98539 | 17251 ft | 394 kts | 210° |
| 2026-04-21 12:34 | 50.11551 | -2.00432 | 17246 ft | 394 kts | 210° |
| 2026-04-21 12:34 | 50.09095 | -2.02322 | 17249 ft | 394 kts | 209° |
| 2026-04-21 12:35 | 50.06639 | -2.04208 | 17247 ft | 394 kts | 210° |
| 2026-04-21 12:35 | 50.04180 | -2.06094 | 17244 ft | 394 kts | 210° |
| 2026-04-21 12:35 | 50.01729 | -2.07972 | 16973 ft | 392 kts | 210° |
| 2026-04-21 12:35 | 49.99326 | -2.09945 | 16695 ft | 388 kts | 216° |
| 2026-04-21 12:36 | 49.97218 | -2.12501 | 16329 ft | 381 kts | 228° |
| 2026-04-21 12:36 | 49.95445 | -2.15508 | 15819 ft | 376 kts | 233° |
| 2026-04-21 12:36 | 49.93725 | -2.18543 | 15301 ft | 373 kts | 232° |
| 2026-04-21 12:36 | 49.92015 | -2.21550 | 14790 ft | 370 kts | 232° |
| 2026-04-21 12:37 | 49.90310 | -2.24536 | 14289 ft | 368 kts | 231° |
| 2026-04-21 12:37 | 49.88617 | -2.27489 | 13751 ft | 365 kts | 230° |
| 2026-04-21 12:37 | 49.86931 | -2.30422 | 13245 ft | 364 kts | 230° |
| 2026-04-21 12:37 | 49.85250 | -2.33346 | 12748 ft | 362 kts | 230° |
| 2026-04-21 12:38 | 49.83601 | -2.36212 | 12252 ft | 361 kts | 229° |
| 2026-04-21 12:38 | 49.81937 | -2.39100 | 11760 ft | 358 kts | 229° |
| 2026-04-21 12:38 | 49.80277 | -2.41979 | 11256 ft | 357 kts | 229° |
| 2026-04-21 12:38 | 49.78625 | -2.44844 | 10763 ft | 357 kts | 228° |
| 2026-04-21 12:39 | 49.76979 | -2.47690 | 10359 ft | 353 kts | 228° |
| 2026-04-21 12:39 | 49.75338 | -2.50520 | 10269 ft | 354 kts | 227° |
| 2026-04-21 12:39 | 49.73700 | -2.53341 | 10119 ft | 346 kts | 227° |
| 2026-04-21 12:39 | 49.72130 | -2.56048 | 9985 ft | 330 kts | 227° |
| 2026-04-21 12:40 | 49.70591 | -2.58570 | 9849 ft | 315 kts | 221° |
| 2026-04-21 12:40 | 49.68828 | -2.60443 | 9699 ft | 301 kts | 207° |
| 2026-04-21 12:40 | 49.67002 | -2.61985 | 9367 ft | 297 kts | 207° |
| 2026-04-21 12:40 | 49.65192 | -2.63511 | 8977 ft | 295 kts | 207° |
| 2026-04-21 12:41 | 49.63408 | -2.65011 | 8450 ft | 291 kts | 206° |
| 2026-04-21 12:41 | 49.61632 | -2.66508 | 7824 ft | 290 kts | 206° |
| 2026-04-21 12:41 | 49.59872 | -2.67995 | 7188 ft | 288 kts | 205° |
| 2026-04-21 12:41 | 49.58137 | -2.69462 | 6599 ft | 287 kts | 204° |
| 2026-04-21 12:42 | 49.56381 | -2.70943 | 5911 ft | 288 kts | 203° |
| 2026-04-21 12:42 | 49.54633 | -2.72416 | 5332 ft | 284 kts | 203° |
| 2026-04-21 12:42 | 49.52892 | -2.73883 | 4559 ft | 287 kts | 204° |
| 2026-04-21 12:42 | 49.51178 | -2.75326 | 4279 ft | 272 kts | 202° |
| 2026-04-21 12:43 | 49.49560 | -2.76696 | 4074 ft | 257 kts | 203° |
| 2026-04-21 12:43 | 49.48038 | -2.77985 | 3836 ft | 245 kts | 202° |
| 2026-04-21 12:43 | 49.46558 | -2.79216 | 3432 ft | 238 kts | 199° |
| 2026-04-21 12:43 | 49.45035 | -2.79686 | 3034 ft | 216 kts | 163° |
| 2026-04-21 12:44 | 49.43761 | -2.78768 | 2646 ft | 197 kts | 129° |
| 2026-04-21 12:44 | 49.43106 | -2.77051 | 2368 ft | 181 kts | 100° |
| 2026-04-21 12:44 | 49.43063 | -2.75225 | 2139 ft | 164 kts | 86° |
| 2026-04-21 12:44 | 49.43113 | -2.73569 | 1958 ft | 146 kts | 86° |
| 2026-04-21 12:45 | 49.43158 | -2.72064 | 1743 ft | 136 kts | 86° |
| 2026-04-21 12:45 | 49.43199 | -2.70655 | 1555 ft | 125 kts | 86° |
| 2026-04-21 12:45 | 49.43235 | -2.69383 | 1394 ft | 115 kts | 86° |
| 2026-04-21 12:45 | 49.43270 | -2.68168 | 1232 ft | 113 kts | 85° |
| 2026-04-21 12:46 | 49.43304 | -2.66979 | 1078 ft | 114 kts | 84° |
| 2026-04-21 12:46 | 49.43338 | -2.65769 | 928 ft | 113 kts | 83° |
| 2026-04-21 12:46 | 49.43377 | -2.64573 | 728 ft | 110 kts | 83° |
| 2026-04-21 12:46 | 49.43421 | -2.63376 | 590 ft | 113 kts | 85° |
| 2026-04-21 12:47 | 49.43441 | -2.62174 | 455 ft | 111 kts | 83° |
| 2026-04-21 12:47 | 49.43471 | -2.60996 | 320 ft | 105 kts | 82° |
| 2026-04-21 12:47 | 49.43502 | -2.60080 | 315 ft | 53 kts | 89° |
| 2026-04-21 12:47 | 49.43504 | -2.59903 | 322 ft | 2 kts | 91° |
| 2026-04-21 12:48 | 49.43482 | -2.59865 | 322 ft | 8 kts | 166° |
| 2026-04-21 12:48 | 49.43424 | -2.59859 | 325 ft | 8 kts | 176° |
| 2026-04-21 12:48 | 49.43359 | -2.59847 | 325 ft | 11 kts | 157° |